メインページ
METAR-TAF:

METAR-TAF

空港 :

リガ, ラトビア

リガ国際空港

緯度: 56-55N, 経度: 023-58E, 海抜: 10m

現時点の気象観測

当レポートは26分前の09:20(UTC)に作成
南/南西の風 4kt
気温 2°C
湿度 100%
気圧 1016 hPa
視程10km以上
高度300ftの千切れ雲あり
高度4900ftの曇り
小雨

METAR: EVRA 250920Z 21004KT 9999 -RA BKN003 OVC049 02/02 Q1016 R18/590195 NOSIG

時間: 11:46 (09:46 UTC)

予報

当レポートは1時間40分前の08:06(UTC)に作成
予報は25日の 09時(UTC)から 26日の 09時(UTC)まで有効
南西の風 7kt
視程: 5000m
高度500ftの千切れ雲あり
高度1000ftの曇り
小雪, 雨
25日の 09時(UTC)から 25日の 12時(UTC)まで一時的に
視程: 1200m
高度200ftの
雪, 雨
25日の 12時(UTC)から 25日の 14時(UTC)まで徐々に
北/北西の風 7kt
視程10km以上
高度1500ftの千切れ雲あり
高度2000ftの千切れ雲あり
25日の 14時(UTC)から 25日の 18時(UTC)まで一時的に
北/北西の風 12kt、最大26ktの突風を伴う
視程: 5000m
高度1000ftの千切れ雲あり
小雪, 雨
25日の 18時(UTC)から 25日の 21時(UTC)まで一時的に
視程: 3000m
25日の 21時(UTC)から 25日の 22時(UTC)まで徐々に
変向風 2kt
25日の 22時(UTC)から 26日の 07時(UTC)まで一時的に
視程: 0700m
高度200ftの千切れ雲あり
着氷性の霧

TAF: EVRA 250806Z 2509/2609 23007KT 5000 -SNRA BKN005 OVC010 TEMPO 2509/2512 1200 SNRA VV002 BECMG 2512/2514 33007KT 9999 NSW BKN015 BKN020 TEMPO 2514/2518 34012G26KT 5000 -SNRA BKN010 TEMPO 2518/2521 3000 BR BECMG 2521/2522 VRB02KT TEMPO 2522/2607 0700 FZFG BKN002

4,000以上の空港の気象観測と天気予報(METAR報とTAF報)

利用可能な観測所は地図上に黄色い丸と赤い丸で示す。

丸の上にカーソルを重ねると観測所名を参照できる。

次にクリックすると気象観測と天気予報を参照できる。

マップの切り替え:黒色「×」印の緑ボタンをクリックして拡大、「-」印の緑ボタンをクリックして縮小、緑色の三角印をクリックして隣りの地図に切り替え


METAR-TAF: